createdAt,value
2023-02-16T03:59:03.908Z,504.00
2023-02-16T04:00:04.219Z,487.00
2023-02-16T04:01:04.507Z,484.00
2023-02-16T04:02:04.252Z,484.00
2023-02-16T04:03:05.940Z,484.00
2023-02-16T04:04:04.940Z,488.00
2023-02-16T04:05:05.484Z,492.00
2023-02-16T04:06:04.866Z,492.00
2023-02-16T04:07:04.972Z,493.00
2023-02-16T04:08:05.248Z,492.00
2023-02-16T04:09:06.041Z,490.00
2023-02-16T04:10:06.103Z,491.00
2023-02-16T04:11:06.490Z,490.00
2023-02-16T04:12:05.732Z,490.00
2023-02-16T04:13:07.443Z,489.00
2023-02-16T04:14:06.643Z,490.00
2023-02-16T04:15:06.031Z,493.00
2023-02-16T04:16:06.869Z,492.00
2023-02-16T04:17:06.381Z,491.00
2023-02-16T04:18:06.293Z,492.00
2023-02-16T04:19:07.458Z,492.00
2023-02-16T04:20:06.593Z,490.00
2023-02-16T04:21:07.723Z,490.00
2023-02-16T04:22:07.604Z,489.00
2023-02-16T04:23:07.777Z,490.00
2023-02-16T04:24:07.464Z,490.00
2023-02-16T04:25:07.227Z,490.00
2023-02-16T04:26:08.669Z,490.00
2023-02-16T04:27:07.698Z,488.00
2023-02-16T04:28:07.758Z,486.00
2023-02-16T04:29:08.594Z,485.00
2023-02-16T04:30:08.065Z,483.00
2023-02-16T04:31:08.895Z,484.00
2023-02-16T04:32:09.039Z,485.00
2023-02-16T04:33:09.079Z,487.00
2023-02-16T04:34:08.408Z,485.00
2023-02-16T04:35:08.719Z,487.00
2023-02-16T04:36:09.466Z,490.00
2023-02-16T04:37:10.007Z,489.00
2023-02-16T04:38:09.776Z,488.00
2023-02-16T04:39:09.280Z,486.00
2023-02-16T04:40:09.386Z,485.00
2023-02-16T04:41:10.187Z,482.00
2023-02-16T04:42:10.407Z,483.00
2023-02-16T04:43:10.513Z,483.00
2023-02-16T04:44:11.250Z,484.00
2023-02-16T04:45:10.734Z,485.00
2023-02-16T04:46:09.976Z,485.00
2023-02-16T04:47:10.453Z,487.00
2023-02-16T04:48:11.384Z,486.00
2023-02-16T04:49:11.609Z,486.00
2023-02-16T04:50:10.590Z,487.00
2023-02-16T04:51:11.604Z,486.00
2023-02-16T04:52:10.831Z,485.00
2023-02-16T04:53:11.916Z,487.00
2023-02-16T04:54:11.535Z,487.00
2023-02-16T04:55:11.503Z,486.00
2023-02-16T04:56:12.267Z,484.00
2023-02-16T04:57:12.875Z,483.00
2023-02-16T04:58:11.759Z,483.00
2023-02-16T04:59:11.798Z,485.00
2023-02-16T05:00:12.304Z,488.00
2023-02-16T05:01:12.198Z,490.00
2023-02-16T05:02:12.607Z,490.00
2023-02-16T05:03:13.213Z,489.00
2023-02-16T05:04:13.374Z,489.00
2023-02-16T05:05:13.480Z,487.00
2023-02-16T05:06:14.096Z,487.00
2023-02-16T05:07:13.961Z,487.00
2023-02-16T05:08:14.148Z,488.00
2023-02-16T05:09:13.281Z,484.00
2023-02-16T05:10:14.088Z,482.00
2023-02-16T05:11:14.400Z,480.00
2023-02-16T05:12:14.393Z,483.00
2023-02-16T05:13:13.707Z,483.00
2023-02-16T05:14:14.212Z,483.00
2023-02-16T05:15:15.357Z,481.00
2023-02-16T05:16:14.081Z,480.00
2023-02-16T05:17:14.229Z,481.00
2023-02-16T05:18:14.377Z,481.00
2023-02-16T05:21:34.121Z,499.00
2023-02-16T05:22:31.856Z,494.00
2023-02-16T05:23:31.666Z,490.00
2023-02-16T05:24:31.516Z,490.00
2023-02-16T05:25:33.046Z,485.00
2023-02-16T05:26:32.589Z,482.00
2023-02-16T05:27:33.081Z,484.00
2023-02-16T05:28:31.792Z,484.00
2023-02-16T05:29:32.744Z,481.00
2023-02-16T05:30:32.163Z,479.00
2023-02-16T05:31:33.385Z,478.00
2023-02-16T05:32:32.444Z,476.00
2023-02-16T05:33:32.692Z,477.00
2023-02-16T05:34:33.834Z,477.00
2023-02-16T05:35:32.675Z,479.00
2023-02-16T05:36:32.775Z,482.00
2023-02-16T05:37:32.992Z,482.00
2023-02-16T05:38:33.408Z,482.00
2023-02-16T05:39:34.058Z,482.00
2023-02-16T05:40:33.329Z,479.00
2023-02-16T05:41:33.424Z,477.00
2023-02-16T05:42:33.961Z,476.00
2023-02-16T05:43:33.968Z,476.00
2023-02-16T05:44:33.995Z,478.00
2023-02-16T05:45:34.973Z,477.00
2023-02-16T05:46:34.262Z,477.00
2023-02-16T05:47:34.308Z,476.00
2023-02-16T05:48:34.700Z,475.00
2023-02-16T05:49:35.478Z,473.00
2023-02-16T05:50:35.618Z,470.00
2023-02-16T05:51:35.933Z,471.00
2023-02-16T05:52:35.970Z,474.00
2023-02-16T05:53:35.433Z,474.00
2023-02-16T05:54:35.486Z,473.00
2023-02-16T05:55:35.579Z,474.00
2023-02-16T05:56:37.103Z,478.00
2023-02-16T05:57:35.809Z,477.00
2023-02-16T05:58:36.718Z,475.00
2023-02-16T05:59:36.129Z,474.00
2023-02-16T06:00:36.368Z,476.00
2023-02-16T06:01:36.438Z,477.00
2023-02-16T06:02:36.737Z,479.00
2023-02-16T06:03:36.800Z,478.00
2023-02-16T06:04:38.395Z,478.00
2023-02-16T06:05:38.424Z,480.00
2023-02-16T06:06:37.840Z,483.00
2023-02-16T06:07:37.902Z,481.00
2023-02-16T06:08:37.210Z,478.00
2023-02-16T06:09:37.218Z,476.00
2023-02-16T06:10:37.817Z,477.00
2023-02-16T06:11:37.632Z,480.00
2023-02-16T06:12:37.817Z,478.00
2023-02-16T06:13:38.063Z,477.00
2023-02-16T06:14:38.257Z,479.00
2023-02-16T06:15:39.106Z,477.00
2023-02-16T06:16:38.492Z,474.00
2023-02-16T06:17:38.484Z,474.00
2023-02-16T06:18:39.437Z,474.00
2023-02-16T06:19:42.628Z,472.00
2023-02-16T06:20:38.696Z,470.00
2023-02-16T06:21:39.484Z,470.00
2023-02-16T06:22:39.448Z,470.00
2023-02-16T06:23:40.056Z,469.00
2023-02-16T06:24:39.994Z,468.00
2023-02-16T06:25:40.362Z,465.00
2023-02-16T06:26:39.912Z,467.00
2023-02-16T06:27:40.802Z,465.00
2023-02-16T06:28:40.476Z,466.00
2023-02-16T06:29:40.938Z,467.00
2023-02-16T06:30:40.305Z,465.00
2023-02-16T06:31:40.488Z,464.00
2023-02-16T06:32:40.758Z,465.00
2023-02-16T06:33:41.702Z,466.00
2023-02-16T06:34:41.571Z,467.00
2023-02-16T06:35:40.961Z,468.00
2023-02-16T06:36:42.720Z,468.00
2023-02-16T06:37:41.041Z,470.00
2023-02-16T06:38:41.610Z,473.00
2023-02-16T06:39:41.803Z,474.00
2023-02-16T06:42:57.699Z,488.00
2023-02-16T06:43:58.080Z,483.00
2023-02-16T06:44:58.068Z,479.00
2023-02-16T06:45:58.161Z,482.00
2023-02-16T06:46:58.772Z,484.00
2023-02-16T06:47:59.188Z,486.00
2023-02-16T06:48:59.701Z,487.00
2023-02-16T06:49:58.882Z,486.00
2023-02-16T06:50:58.904Z,484.00
2023-02-16T06:51:59.280Z,484.00
2023-02-16T06:53:00.026Z,484.00
2023-02-16T06:53:59.623Z,486.00
2023-02-16T06:55:01.942Z,484.00
2023-02-16T06:55:59.838Z,484.00
2023-02-16T06:57:00.300Z,487.00
2023-02-16T06:58:00.521Z,487.00
2023-02-16T06:59:00.421Z,487.00
2023-02-16T07:00:00.410Z,488.00
2023-02-16T07:01:00.449Z,487.00
2023-02-16T07:02:00.663Z,486.00
2023-02-16T07:03:00.632Z,486.00
2023-02-16T07:04:01.439Z,486.00
2023-02-16T07:05:00.863Z,486.00
2023-02-16T07:06:02.958Z,486.00
2023-02-16T07:07:01.093Z,487.00
2023-02-16T07:08:01.164Z,489.00
2023-02-16T07:09:01.626Z,488.00
2023-02-16T07:10:01.684Z,488.00
2023-02-16T07:11:01.473Z,487.00
2023-02-16T07:12:01.790Z,487.00
2023-02-16T07:13:01.909Z,488.00
2023-02-16T07:14:02.418Z,489.00
2023-02-16T07:15:02.430Z,487.00
2023-02-16T07:16:02.344Z,486.00
2023-02-16T07:17:02.385Z,486.00
2023-02-16T07:18:02.582Z,489.00
2023-02-16T07:19:03.153Z,486.00
2023-02-16T07:20:02.918Z,485.00
2023-02-16T07:21:03.574Z,487.00
2023-02-16T07:22:03.197Z,486.00
2023-02-16T07:23:03.392Z,485.00
2023-02-16T07:24:03.385Z,484.00
2023-02-16T07:25:03.836Z,483.00
2023-02-16T07:26:03.882Z,484.00
2023-02-16T07:27:03.884Z,486.00
2023-02-16T07:28:03.935Z,486.00
2023-02-16T07:29:03.938Z,483.00
2023-02-16T07:30:04.983Z,484.00
2023-02-16T07:31:04.881Z,484.00
2023-02-16T07:32:04.521Z,484.00
2023-02-16T07:33:04.377Z,484.00
2023-02-16T07:34:04.773Z,481.00
2023-02-16T07:35:05.716Z,482.00
2023-02-16T07:36:06.617Z,483.00
2023-02-16T07:37:06.022Z,481.00
2023-02-16T07:38:08.958Z,481.00
2023-02-16T07:39:05.398Z,483.00
2023-02-16T07:40:05.570Z,484.00
2023-02-16T07:41:09.113Z,483.00
2023-02-16T07:42:05.875Z,481.00
2023-02-16T07:43:06.204Z,477.00
2023-02-16T07:44:06.370Z,477.00
2023-02-16T07:45:06.293Z,478.00
2023-02-16T07:46:06.453Z,479.00
2023-02-16T07:47:06.547Z,478.00
2023-02-16T07:48:06.690Z,477.00
2023-02-16T07:49:06.698Z,479.00
2023-02-16T07:50:07.061Z,480.00
2023-02-16T07:51:07.415Z,480.00
2023-02-16T07:52:07.181Z,480.00
2023-02-16T07:53:07.712Z,480.00
2023-02-16T07:54:07.593Z,482.00
2023-02-16T07:55:08.006Z,483.00
2023-02-16T07:56:07.584Z,483.00
2023-02-16T07:57:07.893Z,484.00
2023-02-16T07:58:09.251Z,485.00
2023-02-16T07:59:08.951Z,485.00
2023-02-16T08:00:08.353Z,483.00
2023-02-16T08:01:08.531Z,484.00
2023-02-16T08:02:08.743Z,484.00
2023-02-16T08:03:08.818Z,485.00
2023-02-16T08:04:09.344Z,488.00
2023-02-16T08:05:09.273Z,489.00
2023-02-16T08:06:09.293Z,487.00
2023-02-16T08:07:09.244Z,485.00
2023-02-16T08:10:25.193Z,511.00
2023-02-16T08:11:25.311Z,498.00
2023-02-16T08:12:25.313Z,495.00
2023-02-16T08:13:25.785Z,491.00
2023-02-16T08:14:25.590Z,489.00
2023-02-16T08:15:26.525Z,486.00
2023-02-16T08:16:25.838Z,485.00
2023-02-16T08:17:26.037Z,483.00
2023-02-16T08:18:26.266Z,483.00
2023-02-16T08:19:26.290Z,484.00
2023-02-16T08:21:02.830Z,485.00
2023-02-16T08:21:28.655Z,485.00
2023-02-16T08:22:26.803Z,487.00
2023-02-16T08:23:27.129Z,488.00
2023-02-16T08:24:27.875Z,489.00
2023-02-16T08:25:27.053Z,490.00
2023-02-16T08:26:27.601Z,489.00
2023-02-16T08:27:27.273Z,488.00
2023-02-16T08:28:27.736Z,487.00
2023-02-16T08:29:27.604Z,485.00
2023-02-16T08:30:28.451Z,485.00
2023-02-16T08:31:28.640Z,482.00
2023-02-16T08:32:28.669Z,482.00
2023-02-16T08:33:28.765Z,482.00
2023-02-16T08:34:29.464Z,480.00
2023-02-16T08:35:29.283Z,482.00
2023-02-16T08:36:29.977Z,482.00
2023-02-16T08:37:28.871Z,482.00
2023-02-16T08:38:29.719Z,484.00
2023-02-16T08:39:30.791Z,485.00
2023-02-16T08:40:29.101Z,485.00
2023-02-16T08:41:29.387Z,484.00
2023-02-16T08:42:29.588Z,486.00
2023-02-16T08:43:29.909Z,487.00
2023-02-16T08:44:29.683Z,487.00
2023-02-16T08:45:30.057Z,485.00
2023-02-16T08:46:29.932Z,484.00
2023-02-16T08:47:29.887Z,483.00
2023-02-16T08:48:30.074Z,485.00
2023-02-16T08:49:30.250Z,490.00
2023-02-16T08:50:31.223Z,489.00
2023-02-16T08:51:30.708Z,488.00
2023-02-16T08:52:31.220Z,489.00
2023-02-16T08:53:31.114Z,490.00
2023-02-16T08:54:31.234Z,491.00
2023-02-16T08:55:32.143Z,489.00
2023-02-16T08:56:31.333Z,489.00
2023-02-16T08:57:31.431Z,488.00
2023-02-16T08:58:32.339Z,489.00
2023-02-16T08:59:31.634Z,489.00
2023-02-16T09:00:31.767Z,489.00
2023-02-16T09:01:32.318Z,488.00
2023-02-16T09:02:32.027Z,486.00
2023-02-16T09:03:35.869Z,488.00
2023-02-16T09:04:32.382Z,487.00
2023-02-16T09:05:32.482Z,488.00
2023-02-16T09:06:32.622Z,490.00
2023-02-16T09:07:32.970Z,485.00
2023-02-16T09:08:32.706Z,488.00
2023-02-16T09:09:32.969Z,490.00
2023-02-16T09:10:33.171Z,491.00
2023-02-16T09:11:33.278Z,491.00
2023-02-16T09:12:34.054Z,490.00
2023-02-16T09:13:33.590Z,489.00
2023-02-16T09:14:33.626Z,487.00
2023-02-16T09:15:36.969Z,487.00
2023-02-16T09:16:34.596Z,486.00
2023-02-16T09:17:34.018Z,486.00
2023-02-16T09:18:34.335Z,485.00
2023-02-16T09:19:34.150Z,485.00
2023-02-16T09:20:34.626Z,486.00
2023-02-16T09:21:34.361Z,487.00
2023-02-16T09:22:38.367Z,487.00
2023-02-16T09:23:34.806Z,485.00
2023-02-16T09:24:34.721Z,484.00
2023-02-16T09:25:35.040Z,481.00
2023-02-16T09:26:35.130Z,483.00
2023-02-16T09:27:37.182Z,484.00
2023-02-16T09:28:35.425Z,483.00
2023-02-16T09:29:35.933Z,484.00
2023-02-16T09:30:35.502Z,481.00
2023-02-16T09:31:35.819Z,480.00
2023-02-16T09:32:35.775Z,478.00
2023-02-16T09:33:36.958Z,481.00
2023-02-16T09:35:50.748Z,521.00
2023-02-16T09:36:50.947Z,496.00
2023-02-16T09:37:51.143Z,492.00
2023-02-16T09:38:51.191Z,488.00
2023-02-16T09:39:51.353Z,491.00
2023-02-16T09:40:51.555Z,495.00
2023-02-16T09:41:51.902Z,496.00
2023-02-16T09:42:52.201Z,497.00
2023-02-16T09:43:52.051Z,498.00
2023-02-16T09:44:52.027Z,497.00
2023-02-16T09:45:52.070Z,494.00
2023-02-16T09:46:52.131Z,493.00
2023-02-16T09:47:52.343Z,492.00
2023-02-16T09:48:52.346Z,492.00
2023-02-16T09:49:52.664Z,490.00
2023-02-16T09:50:54.516Z,489.00
2023-02-16T09:51:53.048Z,488.00
2023-02-16T09:52:53.298Z,486.00
2023-02-16T09:53:53.186Z,484.00
2023-02-16T09:54:53.248Z,485.00
2023-02-16T09:55:54.278Z,485.00
2023-02-16T09:56:54.224Z,485.00
2023-02-16T09:57:53.676Z,484.00
2023-02-16T09:58:54.022Z,483.00
2023-02-16T09:59:54.070Z,481.00
2023-02-16T10:00:54.553Z,479.00
2023-02-16T10:01:54.481Z,480.00
2023-02-16T10:13:29.191Z,509.00
2023-02-16T10:14:29.498Z,495.00
2023-02-16T10:15:29.296Z,492.00
2023-02-16T10:16:29.511Z,492.00
2023-02-16T10:17:29.997Z,491.00
2023-02-16T10:18:29.879Z,490.00
2023-02-16T10:19:30.137Z,488.00
2023-02-16T10:20:30.044Z,488.00
2023-02-16T10:21:30.507Z,486.00
2023-02-16T10:22:30.576Z,486.00
2023-02-16T10:23:30.955Z,487.00
2023-02-16T10:24:30.918Z,485.00
2023-02-16T10:25:31.121Z,483.00
2023-02-16T10:26:32.256Z,482.00
2023-02-16T10:27:30.965Z,484.00
2023-02-16T10:28:31.647Z,482.00
2023-02-16T10:29:31.737Z,482.00
2023-02-16T10:30:33.448Z,482.00
2023-02-16T10:31:31.562Z,482.00
2023-02-16T10:32:32.838Z,480.00
2023-02-16T10:33:31.743Z,478.00
2023-02-16T10:34:32.386Z,478.00
2023-02-16T10:35:32.172Z,477.00
2023-02-16T10:36:32.085Z,477.00
2023-02-16T10:37:32.173Z,479.00
2023-02-16T10:38:33.029Z,478.00
2023-02-16T10:39:32.852Z,479.00
2023-02-16T10:40:33.182Z,479.00
2023-02-16T10:41:32.888Z,482.00
2023-02-16T10:42:32.953Z,479.00
2023-02-16T10:43:33.400Z,479.00
2023-02-16T10:44:33.192Z,478.00
2023-02-16T10:45:34.244Z,477.00
2023-02-16T10:46:33.678Z,477.00
2023-02-16T10:47:33.739Z,476.00
2023-02-16T10:48:34.266Z,476.00
2023-02-16T10:49:33.978Z,477.00
2023-02-16T10:50:34.534Z,478.00
2023-02-16T10:51:34.506Z,477.00
2023-02-16T10:52:34.555Z,475.00
2023-02-16T10:53:34.534Z,476.00
2023-02-16T10:54:34.529Z,476.00
2023-02-16T10:55:35.259Z,476.00
2023-02-16T10:56:34.951Z,475.00
2023-02-16T10:57:35.225Z,474.00
2023-02-16T10:58:35.130Z,474.00
2023-02-16T10:59:35.614Z,474.00
2023-02-16T11:00:35.329Z,474.00
2023-02-16T11:01:35.839Z,474.00
2023-02-16T11:02:35.660Z,473.00
2023-02-16T11:03:35.762Z,474.00
2023-02-16T11:04:36.122Z,476.00
2023-02-16T11:05:37.099Z,475.00
2023-02-16T11:06:36.662Z,472.00
2023-02-16T11:07:36.731Z,475.00
2023-02-16T11:08:36.470Z,475.00
2023-02-16T11:09:36.648Z,475.00
2023-02-16T11:10:37.361Z,476.00
2023-02-16T11:11:39.017Z,475.00
2023-02-16T11:12:37.251Z,474.00
2023-02-16T11:13:37.043Z,474.00
2023-02-16T11:14:37.453Z,472.00
2023-02-16T11:15:37.701Z,470.00
2023-02-16T11:16:37.952Z,472.00
2023-02-16T11:17:37.808Z,476.00
2023-02-16T11:18:38.011Z,473.00
2023-02-16T11:19:37.931Z,470.00
2023-02-16T11:20:37.994Z,470.00
2023-02-16T11:21:38.181Z,471.00
2023-02-16T11:22:38.863Z,469.00
2023-02-16T11:23:38.338Z,468.00
2023-02-16T11:24:38.550Z,469.00
2023-02-16T11:25:38.665Z,471.00
2023-02-16T11:26:38.769Z,471.00
2023-02-16T11:27:39.170Z,472.00
2023-02-16T11:28:39.099Z,473.00
2023-02-16T11:29:39.440Z,470.00
2023-02-16T11:30:39.458Z,469.00
2023-02-16T11:31:39.741Z,469.00
2023-02-16T11:32:39.918Z,469.00
2023-02-16T11:35:55.874Z,493.00
2023-02-16T11:36:56.738Z,496.00
2023-02-16T11:37:56.383Z,492.00
2023-02-16T11:38:56.395Z,484.00
2023-02-16T11:39:57.083Z,484.00
2023-02-16T11:40:56.495Z,483.00
2023-02-16T11:41:56.607Z,484.00
2023-02-16T11:42:57.530Z,485.00
2023-02-16T11:44:00.990Z,486.00
2023-02-16T11:45:02.711Z,484.00
2023-02-16T11:45:57.222Z,484.00
2023-02-16T11:46:59.075Z,484.00
2023-02-16T11:47:57.456Z,487.00
2023-02-16T11:48:57.727Z,487.00
2023-02-16T11:49:57.876Z,485.00
2023-02-16T11:50:58.094Z,484.00
2023-02-16T11:51:58.854Z,485.00
2023-02-16T11:52:58.156Z,487.00
2023-02-16T11:53:58.160Z,489.00
2023-02-16T11:54:58.378Z,488.00
2023-02-16T11:55:58.412Z,483.00
2023-02-16T11:56:58.552Z,484.00
2023-02-16T11:57:58.901Z,483.00
2023-02-16T11:58:59.977Z,482.00
2023-02-16T11:59:59.065Z,482.00
2023-02-16T12:00:59.178Z,483.00
2023-02-16T12:02:01.029Z,483.00
2023-02-16T12:02:59.512Z,481.00
2023-02-16T12:04:00.322Z,479.00
2023-02-16T12:04:59.641Z,479.00
2023-02-16T12:05:59.915Z,481.00
2023-02-16T12:06:59.868Z,480.00
2023-02-16T12:08:01.937Z,480.00
2023-02-16T12:09:00.107Z,481.00
2023-02-16T12:10:01.184Z,480.00
2023-02-16T12:11:00.434Z,479.00
2023-02-16T12:12:00.538Z,481.00
2023-02-16T12:13:00.984Z,482.00
2023-02-16T12:14:02.081Z,484.00
2023-02-16T12:15:01.224Z,481.00
2023-02-16T12:16:01.995Z,481.00
2023-02-16T12:17:01.891Z,479.00
2023-02-16T12:18:02.116Z,479.00
2023-02-16T12:19:01.733Z,479.00
2023-02-16T12:20:02.221Z,482.00
2023-02-16T12:21:01.942Z,482.00
2023-02-16T12:22:02.034Z,483.00
2023-02-16T12:23:02.190Z,481.00
2023-02-16T12:24:02.407Z,483.00
2023-02-16T12:25:03.031Z,483.00
2023-02-16T12:26:03.347Z,480.00
2023-02-16T12:27:02.620Z,480.00
2023-02-16T12:28:02.730Z,481.00
2023-02-16T12:29:03.025Z,481.00
2023-02-16T12:30:03.090Z,481.00
2023-02-16T12:31:03.610Z,480.00
2023-02-16T12:32:03.582Z,480.00
2023-02-16T12:33:03.774Z,480.00
2023-02-16T12:34:04.360Z,481.00
2023-02-16T12:35:04.025Z,483.00
2023-02-16T12:36:04.314Z,481.00
2023-02-16T12:37:04.038Z,480.00
2023-02-16T12:38:04.438Z,480.00
2023-02-16T12:39:04.703Z,478.00
2023-02-16T12:40:04.596Z,478.00
2023-02-16T12:41:09.724Z,479.00
2023-02-16T12:42:04.961Z,478.00
2023-02-16T12:43:05.076Z,478.00
2023-02-16T12:44:04.882Z,479.00
2023-02-16T12:45:05.472Z,481.00
2023-02-16T12:46:05.957Z,483.00
2023-02-16T12:47:05.422Z,488.00
2023-02-16T12:48:05.406Z,489.00
2023-02-16T12:49:05.720Z,487.00
2023-02-16T12:50:05.826Z,486.00
2023-02-16T12:51:07.108Z,485.00
2023-02-16T12:52:06.155Z,486.00
2023-02-16T12:53:06.153Z,485.00
2023-02-16T12:54:06.472Z,485.00
2023-02-16T12:55:06.763Z,484.00
2023-02-16T12:57:21.610Z,507.00
2023-02-16T12:58:22.076Z,501.00
2023-02-16T12:59:21.837Z,499.00
2023-02-16T13:00:23.253Z,500.00
2023-02-16T13:01:22.218Z,504.00
2023-02-16T13:02:22.475Z,505.00
2023-02-16T13:03:22.775Z,505.00
2023-02-16T13:04:23.030Z,506.00
2023-02-16T13:05:22.628Z,507.00
2023-02-16T13:06:23.101Z,506.00
2023-02-16T13:07:23.588Z,506.00
2023-02-16T13:08:23.103Z,505.00
2023-02-16T13:09:23.673Z,503.00
2023-02-16T13:10:23.752Z,502.00
2023-02-16T13:11:25.871Z,501.00
2023-02-16T13:12:24.173Z,502.00
2023-02-16T13:13:24.495Z,503.00
2023-02-16T13:14:24.811Z,501.00
2023-02-16T13:15:24.267Z,500.00
2023-02-16T13:16:30.594Z,499.00
2023-02-16T13:17:25.276Z,496.00
2023-02-16T13:18:24.818Z,492.00
2023-02-16T13:19:24.920Z,494.00
2023-02-16T13:20:24.906Z,493.00
2023-02-16T13:21:25.146Z,495.00
2023-02-16T13:22:25.306Z,496.00
2023-02-16T13:23:25.098Z,496.00
2023-02-16T13:24:25.167Z,492.00
2023-02-16T13:25:25.463Z,489.00
2023-02-16T13:26:25.652Z,491.00
2023-02-16T13:27:25.564Z,492.00
2023-02-16T13:28:25.915Z,490.00
2023-02-16T13:29:26.045Z,489.00
2023-02-16T13:30:26.120Z,492.00
2023-02-16T13:31:26.437Z,492.00
2023-02-16T13:32:26.995Z,494.00
2023-02-16T13:33:26.684Z,495.00
2023-02-16T13:34:26.798Z,496.00
2023-02-16T13:35:26.695Z,495.00
2023-02-16T13:36:27.107Z,492.00
2023-02-16T13:37:27.054Z,493.00
2023-02-16T13:38:27.118Z,494.00
2023-02-16T13:39:27.567Z,493.00
2023-02-16T13:40:27.441Z,493.00
2023-02-16T13:41:27.957Z,494.00
2023-02-16T13:42:27.753Z,495.00
2023-02-16T13:43:27.960Z,495.00
2023-02-16T13:44:28.334Z,494.00
2023-02-16T13:45:28.404Z,491.00
2023-02-16T13:46:28.295Z,493.00
2023-02-16T13:47:28.754Z,490.00
2023-02-16T13:48:28.565Z,488.00
2023-02-16T13:49:29.484Z,488.00
2023-02-16T13:50:29.172Z,489.00
2023-02-16T13:51:29.398Z,491.00
2023-02-16T13:52:29.168Z,491.00
2023-02-16T13:53:29.957Z,491.00
2023-02-16T13:54:30.329Z,490.00
2023-02-16T13:55:29.900Z,490.00
2023-02-16T13:56:30.727Z,491.00
2023-02-16T13:57:30.164Z,490.00
2023-02-16T13:58:30.037Z,489.00
2023-02-16T13:59:30.277Z,488.00
2023-02-16T14:00:30.591Z,488.00
2023-02-16T14:01:30.577Z,490.00
2023-02-16T14:02:30.664Z,490.00
2023-02-16T14:03:31.452Z,491.00
2023-02-16T14:04:31.400Z,490.00
2023-02-16T14:05:31.008Z,490.00
2023-02-16T14:06:31.181Z,491.00
2023-02-16T14:07:31.350Z,490.00
2023-02-16T14:08:31.412Z,490.00
2023-02-16T14:09:31.470Z,489.00
2023-02-16T14:10:32.206Z,488.00
2023-02-16T14:11:31.942Z,486.00
2023-02-16T14:12:31.939Z,485.00
2023-02-16T14:13:32.111Z,487.00
2023-02-16T14:14:32.186Z,488.00
2023-02-16T14:15:32.234Z,488.00
2023-02-16T14:16:32.516Z,488.00
2023-02-16T14:17:32.428Z,486.00
2023-02-16T14:18:32.649Z,484.00
2023-02-16T14:19:33.016Z,483.00
2023-02-16T14:20:32.936Z,480.00
2023-02-16T14:21:32.945Z,479.00
2023-02-16T14:22:33.077Z,479.00
2023-02-16T14:23:33.479Z,477.00
2023-02-16T14:24:33.692Z,477.00
2023-02-16T14:25:33.543Z,474.00
2023-02-16T14:26:33.693Z,473.00
2023-02-16T14:27:34.207Z,474.00
2023-02-16T14:28:37.928Z,473.00
2023-02-16T14:29:34.089Z,475.00
2023-02-16T14:30:34.356Z,477.00
2023-02-16T14:33:50.920Z,509.00
2023-02-16T14:34:51.014Z,488.00
2023-02-16T14:35:50.939Z,485.00
2023-02-16T14:36:51.156Z,482.00
2023-02-16T14:37:51.085Z,481.00
2023-02-16T14:38:51.377Z,482.00
2023-02-16T14:40:11.208Z,482.00
2023-02-16T14:40:52.640Z,482.00
2023-02-16T14:41:51.606Z,484.00
2023-02-16T14:42:51.816Z,481.00
2023-02-16T14:43:52.209Z,478.00
2023-02-16T14:44:52.057Z,481.00
2023-02-16T14:45:52.996Z,483.00
2023-02-16T14:46:52.808Z,483.00
2023-02-16T14:47:53.146Z,483.00
2023-02-16T14:48:52.771Z,484.00
2023-02-16T14:49:53.588Z,483.00
2023-02-16T14:50:53.016Z,480.00
2023-02-16T14:51:53.006Z,482.00
2023-02-16T14:52:53.327Z,483.00
2023-02-16T14:53:53.662Z,480.00
2023-02-16T14:54:53.531Z,479.00
2023-02-16T14:55:53.546Z,477.00
2023-02-16T14:56:53.822Z,477.00
2023-02-16T14:57:53.827Z,476.00
2023-02-16T14:58:54.322Z,474.00
2023-02-16T14:59:54.278Z,474.00
2023-02-16T15:00:54.380Z,476.00
2023-02-16T15:01:54.383Z,475.00
2023-02-16T15:02:54.513Z,477.00
2023-02-16T15:03:54.979Z,477.00
2023-02-16T15:04:55.569Z,478.00
2023-02-16T15:05:54.839Z,480.00
2023-02-16T15:06:55.330Z,478.00
2023-02-16T15:07:55.268Z,476.00
2023-02-16T15:08:55.190Z,473.00
2023-02-16T15:09:55.347Z,471.00
2023-02-16T15:10:55.689Z,473.00
2023-02-16T15:11:55.883Z,472.00
2023-02-16T15:12:55.850Z,472.00
2023-02-16T15:13:55.898Z,470.00
2023-02-16T15:14:57.028Z,471.00
2023-02-16T15:15:56.615Z,471.00
2023-02-16T15:16:56.438Z,470.00
2023-02-16T15:17:57.359Z,471.00
2023-02-16T15:18:56.615Z,472.00
2023-02-16T15:19:57.678Z,472.00
2023-02-16T15:20:57.374Z,471.00
2023-02-16T15:21:57.992Z,472.00
2023-02-16T15:22:57.481Z,472.00
2023-02-16T15:23:57.318Z,474.00
2023-02-16T15:24:57.495Z,474.00
2023-02-16T15:25:58.537Z,473.00
2023-02-16T15:26:58.251Z,471.00
2023-02-16T15:27:59.416Z,472.00
2023-02-16T15:28:58.026Z,473.00
2023-02-16T15:29:58.533Z,473.00
2023-02-16T15:30:58.611Z,473.00
2023-02-16T15:31:58.881Z,474.00
2023-02-16T15:32:59.674Z,474.00
2023-02-16T15:33:59.204Z,475.00
2023-02-16T15:34:59.447Z,476.00
2023-02-16T15:35:59.962Z,478.00
2023-02-16T15:36:59.501Z,480.00
2023-02-16T15:38:00.263Z,480.00
2023-02-16T15:38:59.778Z,479.00
2023-02-16T15:40:23.992Z,481.00
2023-02-16T15:41:01.703Z,480.00
2023-02-16T15:41:59.885Z,478.00
2023-02-16T15:43:00.474Z,475.00
2023-02-16T15:44:01.025Z,474.00
2023-02-16T15:45:01.237Z,477.00
2023-02-16T15:46:00.920Z,482.00
2023-02-16T15:47:01.474Z,482.00
2023-02-16T15:48:01.576Z,479.00
2023-02-16T15:49:01.695Z,476.00
2023-02-16T15:50:01.392Z,478.00
2023-02-16T15:51:01.243Z,478.00
2023-02-16T15:52:01.662Z,478.00
2023-02-16T15:53:01.491Z,476.00
2023-02-16T15:54:02.311Z,476.00
2023-02-16T15:56:16.777Z,494.00
2023-02-16T15:57:17.066Z,491.00
2023-02-16T15:58:16.965Z,489.00
2023-02-16T15:59:17.067Z,485.00
2023-02-16T16:00:17.430Z,485.00
2023-02-16T16:01:23.874Z,486.00
2023-02-16T16:12:38.344Z,501.00
2023-02-16T16:13:40.685Z,496.00
2023-02-16T16:14:38.539Z,493.00
2023-02-16T16:15:39.585Z,492.00
2023-02-16T16:16:38.922Z,490.00
2023-02-16T16:17:39.091Z,487.00
2023-02-16T16:18:39.505Z,487.00
2023-02-16T16:19:40.134Z,488.00
2023-02-16T16:20:39.561Z,486.00
2023-02-16T16:21:40.829Z,486.00
2023-02-16T16:22:39.875Z,485.00
2023-02-16T16:23:40.055Z,485.00
2023-02-16T16:24:39.796Z,486.00
2023-02-16T16:25:40.914Z,486.00
2023-02-16T16:26:40.283Z,488.00
2023-02-16T16:27:41.124Z,488.00
2023-02-16T16:28:40.313Z,487.00
2023-02-16T16:29:41.574Z,483.00
2023-02-16T16:30:40.624Z,483.00
2023-02-16T16:31:41.034Z,483.00
2023-02-16T16:32:41.061Z,484.00
2023-02-16T16:33:41.264Z,484.00
2023-02-16T16:34:42.194Z,483.00
2023-02-16T16:35:41.682Z,481.00
2023-02-16T16:36:42.829Z,482.00
2023-02-16T16:37:42.443Z,483.00
2023-02-16T16:38:42.543Z,482.00
2023-02-16T16:39:41.769Z,481.00
2023-02-16T16:40:42.832Z,481.00
2023-02-16T16:41:42.274Z,480.00
2023-02-16T16:42:42.339Z,479.00
2023-02-16T16:43:43.210Z,478.00
2023-02-16T16:44:43.304Z,476.00
2023-02-16T16:45:42.826Z,474.00
2023-02-16T16:46:43.054Z,476.00
2023-02-16T16:47:44.544Z,477.00
2023-02-16T16:48:43.206Z,476.00
2023-02-16T16:49:43.515Z,478.00
2023-02-16T16:50:43.263Z,478.00
2023-02-16T16:51:43.588Z,480.00
2023-02-16T16:52:44.344Z,480.00
2023-02-16T16:53:44.161Z,480.00
2023-02-16T16:54:43.832Z,481.00
2023-02-16T16:55:45.059Z,482.00
2023-02-16T16:56:44.070Z,483.00
2023-02-16T16:57:44.468Z,485.00
2023-02-16T16:58:44.399Z,485.00
2023-02-16T16:59:44.505Z,485.00
2023-02-16T17:00:44.592Z,484.00
2023-02-16T17:01:44.831Z,485.00
2023-02-16T17:02:45.037Z,485.00
2023-02-16T17:03:45.909Z,486.00
2023-02-16T17:04:45.255Z,486.00